sensor_id;sensor_type;location;lat;lon;timestamp;temperature;humidity
48734;DHT22;34530;52.084;5.146;2023-03-13T00:01:19;13.10;67.90
48734;DHT22;34530;52.084;5.146;2023-03-13T00:03:46;13.10;67.90
48734;DHT22;34530;52.084;5.146;2023-03-13T00:06:12;13.10;67.90
48734;DHT22;34530;52.084;5.146;2023-03-13T00:08:38;13.10;67.90
48734;DHT22;34530;52.084;5.146;2023-03-13T00:11:06;13.10;67.90
48734;DHT22;34530;52.084;5.146;2023-03-13T00:13:32;13.10;67.90
48734;DHT22;34530;52.084;5.146;2023-03-13T00:16:05;13.10;68.70
48734;DHT22;34530;52.084;5.146;2023-03-13T00:18:32;13.10;67.90
48734;DHT22;34530;52.084;5.146;2023-03-13T00:21:17;13.10;68.00
48734;DHT22;34530;52.084;5.146;2023-03-13T00:23:43;13.10;67.90
48734;DHT22;34530;52.084;5.146;2023-03-13T00:26:11;13.10;68.00
48734;DHT22;34530;52.084;5.146;2023-03-13T00:28:38;13.10;68.00
48734;DHT22;34530;52.084;5.146;2023-03-13T00:33:33;13.10;68.10
48734;DHT22;34530;52.084;5.146;2023-03-13T00:36:00;13.10;68.00
48734;DHT22;34530;52.084;5.146;2023-03-13T00:38:27;13.10;68.10
48734;DHT22;34530;52.084;5.146;2023-03-13T00:41:01;13.10;68.00
48734;DHT22;34530;52.084;5.146;2023-03-13T00:43:27;13.10;68.00
48734;DHT22;34530;52.084;5.146;2023-03-13T00:45:52;13.10;68.10
48734;DHT22;34530;52.084;5.146;2023-03-13T00:48:18;13.10;68.10
48734;DHT22;34530;52.084;5.146;2023-03-13T00:50:43;13.10;68.10
48734;DHT22;34530;52.084;5.146;2023-03-13T00:53:09;13.10;68.10
48734;DHT22;34530;52.084;5.146;2023-03-13T00:55:34;13.40;67.60
48734;DHT22;34530;52.084;5.146;2023-03-13T00:58:00;13.30;67.70
48734;DHT22;34530;52.084;5.146;2023-03-13T01:00:26;13.20;67.80
48734;DHT22;34530;52.084;5.146;2023-03-13T01:02:51;13.20;67.90
48734;DHT22;34530;52.084;5.146;2023-03-13T01:05:17;13.20;68.00
48734;DHT22;34530;52.084;5.146;2023-03-13T01:07:42;13.10;68.00
48734;DHT22;34530;52.084;5.146;2023-03-13T01:10:08;13.10;68.00
48734;DHT22;34530;52.084;5.146;2023-03-13T01:12:34;13.10;68.00
48734;DHT22;34530;52.084;5.146;2023-03-13T01:15:00;13.10;68.10
48734;DHT22;34530;52.084;5.146;2023-03-13T01:17:25;13.10;68.10
48734;DHT22;34530;52.084;5.146;2023-03-13T01:19:55;13.10;68.10
48734;DHT22;34530;52.084;5.146;2023-03-13T01:22:20;13.10;68.20
48734;DHT22;34530;52.084;5.146;2023-03-13T01:24:46;13.10;68.20
48734;DHT22;34530;52.084;5.146;2023-03-13T01:27:14;13.10;68.20
48734;DHT22;34530;52.084;5.146;2023-03-13T01:29:40;13.50;67.50
48734;DHT22;34530;52.084;5.146;2023-03-13T01:32:05;13.40;67.80
48734;DHT22;34530;52.084;5.146;2023-03-13T01:34:31;13.30;67.90
48734;DHT22;34530;52.084;5.146;2023-03-13T01:36:56;13.30;68.00
48734;DHT22;34530;52.084;5.146;2023-03-13T01:39:22;13.20;68.00
48734;DHT22;34530;52.084;5.146;2023-03-13T01:41:48;13.20;68.10
48734;DHT22;34530;52.084;5.146;2023-03-13T01:44:25;13.20;68.20
48734;DHT22;34530;52.084;5.146;2023-03-13T01:46:51;13.20;68.20
48734;DHT22;34530;52.084;5.146;2023-03-13T01:49:22;13.20;68.30
48734;DHT22;34530;52.084;5.146;2023-03-13T01:51:56;13.20;68.30
48734;DHT22;34530;52.084;5.146;2023-03-13T01:54:34;13.10;68.30
48734;DHT22;34530;52.084;5.146;2023-03-13T01:59:33;13.10;68.40
48734;DHT22;34530;52.084;5.146;2023-03-13T02:02:03;13.10;68.50
48734;DHT22;34530;52.084;5.146;2023-03-13T02:04:33;13.10;68.50
48734;DHT22;34530;52.084;5.146;2023-03-13T02:07:03;13.20;68.60
48734;DHT22;34530;52.084;5.146;2023-03-13T02:09:31;13.10;68.60
48734;DHT22;34530;52.084;5.146;2023-03-13T02:14:34;13.50;68.10
48734;DHT22;34530;52.084;5.146;2023-03-13T02:17:01;13.40;68.30
48734;DHT22;34530;52.084;5.146;2023-03-13T02:27:15;13.20;68.70
48734;DHT22;34530;52.084;5.146;2023-03-13T02:29:40;13.20;68.70
48734;DHT22;34530;52.084;5.146;2023-03-13T02:32:07;13.20;68.80
48734;DHT22;34530;52.084;5.146;2023-03-13T02:34:34;13.20;68.80
48734;DHT22;34530;52.084;5.146;2023-03-13T02:37:03;13.20;68.90
48734;DHT22;34530;52.084;5.146;2023-03-13T02:39:30;13.20;68.90
48734;DHT22;34530;52.084;5.146;2023-03-13T02:41:57;13.20;69.00
48734;DHT22;34530;52.084;5.146;2023-03-13T02:44:23;13.20;69.00
48734;DHT22;34530;52.084;5.146;2023-03-13T02:46:50;13.20;69.00
48734;DHT22;34530;52.084;5.146;2023-03-13T02:49:28;13.20;69.00
48734;DHT22;34530;52.084;5.146;2023-03-13T02:51:57;13.20;69.00
48734;DHT22;34530;52.084;5.146;2023-03-13T02:54:32;13.10;69.00
48734;DHT22;34530;52.084;5.146;2023-03-13T02:57:01;13.20;69.20
48734;DHT22;34530;52.084;5.146;2023-03-13T02:59:27;13.20;69.20
48734;DHT22;34530;52.084;5.146;2023-03-13T03:01:53;13.20;69.20
48734;DHT22;34530;52.084;5.146;2023-03-13T03:04:20;13.10;69.20
48734;DHT22;34530;52.084;5.146;2023-03-13T03:06:46;13.20;69.30
48734;DHT22;34530;52.084;5.146;2023-03-13T03:09:12;13.10;69.30
48734;DHT22;34530;52.084;5.146;2023-03-13T03:11:38;13.20;70.20
48734;DHT22;34530;52.084;5.146;2023-03-13T03:14:04;13.20;69.50
48734;DHT22;34530;52.084;5.146;2023-03-13T03:16:30;13.20;69.50
48734;DHT22;34530;52.084;5.146;2023-03-13T03:18:55;13.20;69.50
48734;DHT22;34530;52.084;5.146;2023-03-13T03:21:21;13.20;69.60
48734;DHT22;34530;52.084;5.146;2023-03-13T03:23:48;13.20;69.70
48734;DHT22;34530;52.084;5.146;2023-03-13T03:26:14;13.10;69.70
48734;DHT22;34530;52.084;5.146;2023-03-13T03:28:40;13.20;69.80
48734;DHT22;34530;52.084;5.146;2023-03-13T03:31:08;13.20;69.80
48734;DHT22;34530;52.084;5.146;2023-03-13T03:33:34;13.20;69.90
48734;DHT22;34530;52.084;5.146;2023-03-13T03:36:02;13.20;69.90
48734;DHT22;34530;52.084;5.146;2023-03-13T03:38:28;13.20;70.00
48734;DHT22;34530;52.084;5.146;2023-03-13T03:40:53;13.20;70.00
48734;DHT22;34530;52.084;5.146;2023-03-13T03:43:19;13.20;70.00
48734;DHT22;34530;52.084;5.146;2023-03-13T03:45:44;13.20;70.00
48734;DHT22;34530;52.084;5.146;2023-03-13T03:48:10;13.20;70.00
48734;DHT22;34530;52.084;5.146;2023-03-13T03:50:36;13.20;70.10
48734;DHT22;34530;52.084;5.146;2023-03-13T03:53:01;13.20;70.10
48734;DHT22;34530;52.084;5.146;2023-03-13T03:55:27;13.20;70.20
48734;DHT22;34530;52.084;5.146;2023-03-13T03:57:53;13.20;70.20
48734;DHT22;34530;52.084;5.146;2023-03-13T04:00:18;13.20;70.20
48734;DHT22;34530;52.084;5.146;2023-03-13T04:02:44;13.20;70.20
48734;DHT22;34530;52.084;5.146;2023-03-13T04:05:10;13.20;70.30
48734;DHT22;34530;52.084;5.146;2023-03-13T04:07:35;13.20;70.40
48734;DHT22;34530;52.084;5.146;2023-03-13T04:10:02;13.20;70.40
48734;DHT22;34530;52.084;5.146;2023-03-13T04:12:28;13.20;70.50
48734;DHT22;34530;52.084;5.146;2023-03-13T04:14:53;13.20;70.60
48734;DHT22;34530;52.084;5.146;2023-03-13T04:17:19;13.20;70.60
48734;DHT22;34530;52.084;5.146;2023-03-13T04:19:44;13.20;70.70
48734;DHT22;34530;52.084;5.146;2023-03-13T04:22:10;13.20;70.70
48734;DHT22;34530;52.084;5.146;2023-03-13T04:24:36;13.20;70.80
48734;DHT22;34530;52.084;5.146;2023-03-13T04:27:01;13.20;70.90
48734;DHT22;34530;52.084;5.146;2023-03-13T04:29:28;13.20;71.70
48734;DHT22;34530;52.084;5.146;2023-03-13T04:31:54;13.20;70.90
48734;DHT22;34530;52.084;5.146;2023-03-13T04:34:19;13.20;71.00
48734;DHT22;34530;52.084;5.146;2023-03-13T04:36:45;13.20;71.00
48734;DHT22;34530;52.084;5.146;2023-03-13T04:39:11;13.20;71.00
48734;DHT22;34530;52.084;5.146;2023-03-13T04:41:36;13.20;71.10
48734;DHT22;34530;52.084;5.146;2023-03-13T04:44:02;13.30;71.20
48734;DHT22;34530;52.084;5.146;2023-03-13T04:46:28;13.20;71.20
48734;DHT22;34530;52.084;5.146;2023-03-13T04:48:53;13.30;71.30
48734;DHT22;34530;52.084;5.146;2023-03-13T04:51:19;13.30;71.30
48734;DHT22;34530;52.084;5.146;2023-03-13T04:53:44;13.30;71.30
48734;DHT22;34530;52.084;5.146;2023-03-13T04:56:15;13.30;71.40
48734;DHT22;34530;52.084;5.146;2023-03-13T04:58:44;13.30;71.40
48734;DHT22;34530;52.084;5.146;2023-03-13T05:01:10;13.30;71.40
48734;DHT22;34530;52.084;5.146;2023-03-13T05:03:35;13.30;71.40
48734;DHT22;34530;52.084;5.146;2023-03-13T05:06:01;13.30;71.40
48734;DHT22;34530;52.084;5.146;2023-03-13T05:08:26;13.30;71.40
48734;DHT22;34530;52.084;5.146;2023-03-13T05:10:52;13.30;71.40
48734;DHT22;34530;52.084;5.146;2023-03-13T05:13:18;13.30;71.50
48734;DHT22;34530;52.084;5.146;2023-03-13T05:15:43;13.30;71.50
48734;DHT22;34530;52.084;5.146;2023-03-13T05:18:09;13.30;71.50
48734;DHT22;34530;52.084;5.146;2023-03-13T05:20:35;13.30;71.60
48734;DHT22;34530;52.084;5.146;2023-03-13T05:23:01;13.30;71.70
48734;DHT22;34530;52.084;5.146;2023-03-13T05:25:26;13.30;71.70
48734;DHT22;34530;52.084;5.146;2023-03-13T05:27:52;13.30;71.70
48734;DHT22;34530;52.084;5.146;2023-03-13T05:30:18;13.30;71.70
48734;DHT22;34530;52.084;5.146;2023-03-13T05:32:44;13.30;71.70
48734;DHT22;34530;52.084;5.146;2023-03-13T05:35:09;13.30;71.80
48734;DHT22;34530;52.084;5.146;2023-03-13T05:37:35;13.30;71.80
48734;DHT22;34530;52.084;5.146;2023-03-13T05:40:01;13.30;71.90
48734;DHT22;34530;52.084;5.146;2023-03-13T05:42:26;13.30;72.00
48734;DHT22;34530;52.084;5.146;2023-03-13T05:44:52;13.30;72.00
48734;DHT22;34530;52.084;5.146;2023-03-13T05:47:17;13.30;72.10
48734;DHT22;34530;52.084;5.146;2023-03-13T05:49:43;13.30;72.10
48734;DHT22;34530;52.084;5.146;2023-03-13T05:52:09;13.30;72.10
48734;DHT22;34530;52.084;5.146;2023-03-13T05:54:35;13.30;72.10
48734;DHT22;34530;52.084;5.146;2023-03-13T05:57:00;13.30;72.20
48734;DHT22;34530;52.084;5.146;2023-03-13T05:59:26;13.30;72.20
48734;DHT22;34530;52.084;5.146;2023-03-13T06:01:52;13.30;72.30
48734;DHT22;34530;52.084;5.146;2023-03-13T06:04:17;13.30;72.20
48734;DHT22;34530;52.084;5.146;2023-03-13T06:06:43;13.30;72.30
48734;DHT22;34530;52.084;5.146;2023-03-13T06:09:10;13.30;72.30
48734;DHT22;34530;52.084;5.146;2023-03-13T06:11:36;13.30;72.30
48734;DHT22;34530;52.084;5.146;2023-03-13T06:14:02;13.40;72.40
48734;DHT22;34530;52.084;5.146;2023-03-13T06:16:27;13.30;72.50
48734;DHT22;34530;52.084;5.146;2023-03-13T06:18:53;13.30;72.50
48734;DHT22;34530;52.084;5.146;2023-03-13T06:21:19;13.40;72.50
48734;DHT22;34530;52.084;5.146;2023-03-13T06:23:44;13.30;72.50
48734;DHT22;34530;52.084;5.146;2023-03-13T06:26:10;13.40;72.50
48734;DHT22;34530;52.084;5.146;2023-03-13T06:28:36;13.30;72.50
48734;DHT22;34530;52.084;5.146;2023-03-13T06:31:02;13.40;72.50
48734;DHT22;34530;52.084;5.146;2023-03-13T06:33:28;13.40;72.50
48734;DHT22;34530;52.084;5.146;2023-03-13T06:35:55;13.40;72.50
48734;DHT22;34530;52.084;5.146;2023-03-13T06:38:23;13.40;72.50
48734;DHT22;34530;52.084;5.146;2023-03-13T06:40:49;13.40;72.50
48734;DHT22;34530;52.084;5.146;2023-03-13T06:43:14;13.40;72.50
48734;DHT22;34530;52.084;5.146;2023-03-13T06:45:40;13.40;72.60
48734;DHT22;34530;52.084;5.146;2023-03-13T06:48:05;13.40;72.60
48734;DHT22;34530;52.084;5.146;2023-03-13T06:50:31;13.40;72.50
48734;DHT22;34530;52.084;5.146;2023-03-13T06:52:56;13.40;72.60
48734;DHT22;34530;52.084;5.146;2023-03-13T06:55:23;13.40;72.70
48734;DHT22;34530;52.084;5.146;2023-03-13T06:57:50;13.40;72.70
48734;DHT22;34530;52.084;5.146;2023-03-13T07:00:16;13.40;72.70
48734;DHT22;34530;52.084;5.146;2023-03-13T07:02:41;13.40;72.70
48734;DHT22;34530;52.084;5.146;2023-03-13T07:05:08;13.40;72.70
48734;DHT22;34530;52.084;5.146;2023-03-13T07:07:33;13.40;72.70
48734;DHT22;34530;52.084;5.146;2023-03-13T07:09:59;13.40;72.70
48734;DHT22;34530;52.084;5.146;2023-03-13T07:12:25;13.40;72.80
48734;DHT22;34530;52.084;5.146;2023-03-13T07:14:50;13.40;72.80
48734;DHT22;34530;52.084;5.146;2023-03-13T07:17:16;13.40;72.80
48734;DHT22;34530;52.084;5.146;2023-03-13T07:19:42;13.40;72.80
48734;DHT22;34530;52.084;5.146;2023-03-13T07:22:07;13.40;72.80
48734;DHT22;34530;52.084;5.146;2023-03-13T07:24:33;13.50;72.90
48734;DHT22;34530;52.084;5.146;2023-03-13T07:26:59;13.50;72.90
48734;DHT22;34530;52.084;5.146;2023-03-13T07:29:24;13.50;72.90
48734;DHT22;34530;52.084;5.146;2023-03-13T07:31:50;13.50;72.90
48734;DHT22;34530;52.084;5.146;2023-03-13T07:34:16;13.50;72.90
48734;DHT22;34530;52.084;5.146;2023-03-13T07:36:41;13.50;73.00
48734;DHT22;34530;52.084;5.146;2023-03-13T07:39:08;13.50;73.00
48734;DHT22;34530;52.084;5.146;2023-03-13T07:41:34;13.40;73.00
48734;DHT22;34530;52.084;5.146;2023-03-13T07:43:59;13.50;73.00
48734;DHT22;34530;52.084;5.146;2023-03-13T07:46:25;13.50;73.00
48734;DHT22;34530;52.084;5.146;2023-03-13T07:48:52;13.50;73.10
48734;DHT22;34530;52.084;5.146;2023-03-13T07:51:23;13.50;73.10
48734;DHT22;34530;52.084;5.146;2023-03-13T07:53:49;13.50;73.00
48734;DHT22;34530;52.084;5.146;2023-03-13T07:56:17;13.50;73.00
48734;DHT22;34530;52.084;5.146;2023-03-13T07:58:44;13.50;73.10
48734;DHT22;34530;52.084;5.146;2023-03-13T08:01:21;13.50;73.10
48734;DHT22;34530;52.084;5.146;2023-03-13T08:03:47;13.50;73.00
48734;DHT22;34530;52.084;5.146;2023-03-13T08:06:19;13.50;73.10
48734;DHT22;34530;52.084;5.146;2023-03-13T08:08:45;13.50;73.00
48734;DHT22;34530;52.084;5.146;2023-03-13T08:11:13;13.50;73.00
48734;DHT22;34530;52.084;5.146;2023-03-13T08:13:40;13.50;73.10
48734;DHT22;34530;52.084;5.146;2023-03-13T08:16:14;13.50;73.10
48734;DHT22;34530;52.084;5.146;2023-03-13T08:18:42;13.50;73.10
48734;DHT22;34530;52.084;5.146;2023-03-13T08:21:13;13.50;73.10
48734;DHT22;34530;52.084;5.146;2023-03-13T08:23:39;13.50;73.20
48734;DHT22;34530;52.084;5.146;2023-03-13T08:26:16;13.60;73.20
48734;DHT22;34530;52.084;5.146;2023-03-13T08:28:43;13.60;73.20
48734;DHT22;34530;52.084;5.146;2023-03-13T08:31:23;13.60;73.20
48734;DHT22;34530;52.084;5.146;2023-03-13T08:33:50;13.50;73.20
48734;DHT22;34530;52.084;5.146;2023-03-13T08:36:19;13.60;74.10
48734;DHT22;34530;52.084;5.146;2023-03-13T08:38:46;13.60;73.40
48734;DHT22;34530;52.084;5.146;2023-03-13T08:41:17;13.60;73.30
48734;DHT22;34530;52.084;5.146;2023-03-13T08:43:43;13.60;73.30
48734;DHT22;34530;52.084;5.146;2023-03-13T08:46:09;13.60;73.30
48734;DHT22;34530;52.084;5.146;2023-03-13T08:48:35;13.60;73.30
48734;DHT22;34530;52.084;5.146;2023-03-13T08:51:07;13.60;73.30
48734;DHT22;34530;52.084;5.146;2023-03-13T08:53:34;13.60;73.30
48734;DHT22;34530;52.084;5.146;2023-03-13T08:56:00;13.60;73.40
48734;DHT22;34530;52.084;5.146;2023-03-13T08:58:26;13.60;73.40
48734;DHT22;34530;52.084;5.146;2023-03-13T09:00:52;13.60;73.40
48734;DHT22;34530;52.084;5.146;2023-03-13T09:03:17;13.60;73.40
48734;DHT22;34530;52.084;5.146;2023-03-13T09:05:43;13.60;73.40
48734;DHT22;34530;52.084;5.146;2023-03-13T09:08:10;13.60;73.40
48734;DHT22;34530;52.084;5.146;2023-03-13T09:10:36;13.60;73.40
48734;DHT22;34530;52.084;5.146;2023-03-13T09:13:02;13.60;73.50
48734;DHT22;34530;52.084;5.146;2023-03-13T09:15:28;13.70;73.50
48734;DHT22;34530;52.084;5.146;2023-03-13T09:17:53;13.70;73.50
48734;DHT22;34530;52.084;5.146;2023-03-13T09:20:19;13.70;73.50
48734;DHT22;34530;52.084;5.146;2023-03-13T09:22:45;13.70;73.50
48734;DHT22;34530;52.084;5.146;2023-03-13T09:25:11;13.80;73.60
48734;DHT22;34530;52.084;5.146;2023-03-13T09:27:37;13.80;74.40
48734;DHT22;34530;52.084;5.146;2023-03-13T09:30:03;13.80;73.70
48734;DHT22;34530;52.084;5.146;2023-03-13T09:32:28;13.90;73.70
48734;DHT22;34530;52.084;5.146;2023-03-13T09:34:54;13.90;73.70
48734;DHT22;34530;52.084;5.146;2023-03-13T09:37:20;13.90;73.70
48734;DHT22;34530;52.084;5.146;2023-03-13T09:39:47;13.90;73.70
48734;DHT22;34530;52.084;5.146;2023-03-13T09:42:34;14.00;73.80
48734;DHT22;34530;52.084;5.146;2023-03-13T09:45:07;14.00;73.80
48734;DHT22;34530;52.084;5.146;2023-03-13T09:48:07;14.00;73.80
48734;DHT22;34530;52.084;5.146;2023-03-13T09:50:45;14.00;73.70
48734;DHT22;34530;52.084;5.146;2023-03-13T09:53:23;14.00;73.80
48734;DHT22;34530;52.084;5.146;2023-03-13T09:55:51;14.00;73.80
48734;DHT22;34530;52.084;5.146;2023-03-13T09:58:20;14.00;73.80
48734;DHT22;34530;52.084;5.146;2023-03-13T10:00:59;14.00;73.80
48734;DHT22;34530;52.084;5.146;2023-03-13T10:03:37;14.10;73.80
48734;DHT22;34530;52.084;5.146;2023-03-13T10:06:13;14.00;73.80
48734;DHT22;34530;52.084;5.146;2023-03-13T10:08:40;14.10;73.80
48734;DHT22;34530;52.084;5.146;2023-03-13T10:16:26;14.20;73.80
48734;DHT22;34530;52.084;5.146;2023-03-13T10:18:56;14.20;74.00
48734;DHT22;34530;52.084;5.146;2023-03-13T10:21:28;14.20;74.00
48734;DHT22;34530;52.084;5.146;2023-03-13T10:24:04;14.30;74.00
48734;DHT22;34530;52.084;5.146;2023-03-13T10:26:35;14.30;73.90
48734;DHT22;34530;52.084;5.146;2023-03-13T10:31:50;14.40;73.90
48734;DHT22;34530;52.084;5.146;2023-03-13T10:34:17;14.40;73.90
48734;DHT22;34530;52.084;5.146;2023-03-13T10:36:48;14.40;73.80
48734;DHT22;34530;52.084;5.146;2023-03-13T10:39:18;14.40;73.80
48734;DHT22;34530;52.084;5.146;2023-03-13T10:41:45;14.50;73.90
48734;DHT22;34530;52.084;5.146;2023-03-13T10:44:17;14.50;73.80
48734;DHT22;34530;52.084;5.146;2023-03-13T10:46:45;14.50;73.70
48734;DHT22;34530;52.084;5.146;2023-03-13T10:49:17;14.60;73.70
48734;DHT22;34530;52.084;5.146;2023-03-13T10:51:49;14.60;73.70
48734;DHT22;34530;52.084;5.146;2023-03-13T10:56:41;14.60;73.60
48734;DHT22;34530;52.084;5.146;2023-03-13T11:01:46;14.70;73.40
48734;DHT22;34530;52.084;5.146;2023-03-13T11:04:29;14.70;73.40
48734;DHT22;34530;52.084;5.146;2023-03-13T11:07:04;14.70;73.40
48734;DHT22;34530;52.084;5.146;2023-03-13T11:09:29;14.70;73.40
48734;DHT22;34530;52.084;5.146;2023-03-13T11:12:08;14.70;73.30
48734;DHT22;34530;52.084;5.146;2023-03-13T11:14:34;14.70;73.20
48734;DHT22;34530;52.084;5.146;2023-03-13T11:17:20;14.70;73.20
48734;DHT22;34530;52.084;5.146;2023-03-13T11:22:52;14.80;73.10
48734;DHT22;34530;52.084;5.146;2023-03-13T11:25:30;14.80;73.00
48734;DHT22;34530;52.084;5.146;2023-03-13T11:31:18;14.80;72.90
48734;DHT22;34530;52.084;5.146;2023-03-13T11:33:46;14.80;72.90
48734;DHT22;34530;52.084;5.146;2023-03-13T11:36:25;14.80;72.90
48734;DHT22;34530;52.084;5.146;2023-03-13T11:39:01;14.90;72.80
48734;DHT22;34530;52.084;5.146;2023-03-13T11:41:40;14.80;72.70
48734;DHT22;34530;52.084;5.146;2023-03-13T11:44:14;14.80;72.70
48734;DHT22;34530;52.084;5.146;2023-03-13T11:49:52;14.90;72.60
48734;DHT22;34530;52.084;5.146;2023-03-13T12:01:14;14.80;72.40
48734;DHT22;34530;52.084;5.146;2023-03-13T12:09:01;14.80;72.30
48734;DHT22;34530;52.084;5.146;2023-03-13T12:11:42;14.80;72.40
48734;DHT22;34530;52.084;5.146;2023-03-13T12:14:21;14.80;72.20
48734;DHT22;34530;52.084;5.146;2023-03-13T12:17:02;14.80;72.20
48734;DHT22;34530;52.084;5.146;2023-03-13T12:20:24;14.80;72.20
48734;DHT22;34530;52.084;5.146;2023-03-13T12:23:16;14.90;72.20
48734;DHT22;34530;52.084;5.146;2023-03-13T12:25:50;14.90;72.20
48734;DHT22;34530;52.084;5.146;2023-03-13T12:28:24;14.90;72.30
48734;DHT22;34530;52.084;5.146;2023-03-13T12:36:13;14.80;72.20
48734;DHT22;34530;52.084;5.146;2023-03-13T12:41:35;14.90;72.10
48734;DHT22;34530;52.084;5.146;2023-03-13T12:44:08;14.90;72.20
48734;DHT22;34530;52.084;5.146;2023-03-13T12:46:36;14.90;72.10
48734;DHT22;34530;52.084;5.146;2023-03-13T12:49:15;14.90;72.10
48734;DHT22;34530;52.084;5.146;2023-03-13T13:00:26;15.00;71.90
48734;DHT22;34530;52.084;5.146;2023-03-13T13:06:02;15.00;71.70
48734;DHT22;34530;52.084;5.146;2023-03-13T13:08:32;15.00;71.70
48734;DHT22;34530;52.084;5.146;2023-03-13T13:14:02;15.00;71.60
48734;DHT22;34530;52.084;5.146;2023-03-13T13:16:30;15.00;71.60
48734;DHT22;34530;52.084;5.146;2023-03-13T13:24:58;15.10;71.50
48734;DHT22;34530;52.084;5.146;2023-03-13T13:29:54;15.10;71.40
48734;DHT22;34530;52.084;5.146;2023-03-13T13:32:49;15.10;71.30
48734;DHT22;34530;52.084;5.146;2023-03-13T13:35:30;15.10;71.30
48734;DHT22;34530;52.084;5.146;2023-03-13T13:41:02;15.10;71.10
48734;DHT22;34530;52.084;5.146;2023-03-13T13:43:35;15.10;71.10
48734;DHT22;34530;52.084;5.146;2023-03-13T13:48:35;15.20;71.10
48734;DHT22;34530;52.084;5.146;2023-03-13T13:53:50;15.10;70.90
48734;DHT22;34530;52.084;5.146;2023-03-13T14:02:04;15.20;70.70
48734;DHT22;34530;52.084;5.146;2023-03-13T14:13:02;15.20;70.60
48734;DHT22;34530;52.084;5.146;2023-03-13T14:15:35;15.20;70.60
48734;DHT22;34530;52.084;5.146;2023-03-13T14:18:22;15.20;70.60
48734;DHT22;34530;52.084;5.146;2023-03-13T14:20:54;15.30;70.50
48734;DHT22;34530;52.084;5.146;2023-03-13T14:23:36;15.30;70.50
48734;DHT22;34530;52.084;5.146;2023-03-13T14:26:25;15.30;70.40
48734;DHT22;34530;52.084;5.146;2023-03-13T14:28:59;15.30;70.40
48734;DHT22;34530;52.084;5.146;2023-03-13T14:31:35;15.30;70.30
48734;DHT22;34530;52.084;5.146;2023-03-13T14:34:05;15.30;70.30
48734;DHT22;34530;52.084;5.146;2023-03-13T14:39:17;15.30;70.10
48734;DHT22;34530;52.084;5.146;2023-03-13T14:41:48;15.30;70.30
48734;DHT22;34530;52.084;5.146;2023-03-13T14:44:23;15.30;70.30
48734;DHT22;34530;52.084;5.146;2023-03-13T14:46:54;15.30;70.20
48734;DHT22;34530;52.084;5.146;2023-03-13T14:49:22;15.40;70.30
48734;DHT22;34530;52.084;5.146;2023-03-13T14:52:02;15.30;70.20
48734;DHT22;34530;52.084;5.146;2023-03-13T14:54:31;15.30;70.10
48734;DHT22;34530;52.084;5.146;2023-03-13T14:57:15;15.30;70.20
48734;DHT22;34530;52.084;5.146;2023-03-13T14:59:42;15.40;70.20
48734;DHT22;34530;52.084;5.146;2023-03-13T15:02:34;15.40;70.20
48734;DHT22;34530;52.084;5.146;2023-03-13T15:05:02;15.40;70.10
48734;DHT22;34530;52.084;5.146;2023-03-13T15:07:49;15.30;70.10
48734;DHT22;34530;52.084;5.146;2023-03-13T15:10:37;15.40;70.20
48734;DHT22;34530;52.084;5.146;2023-03-13T15:15:48;15.40;70.10
48734;DHT22;34530;52.084;5.146;2023-03-13T15:18:20;15.40;70.10
48734;DHT22;34530;52.084;5.146;2023-03-13T15:20:54;15.40;70.80
48734;DHT22;34530;52.084;5.146;2023-03-13T15:23:20;15.40;70.10
48734;DHT22;34530;52.084;5.146;2023-03-13T15:25:47;15.40;70.10
48734;DHT22;34530;52.084;5.146;2023-03-13T15:28:21;15.50;70.10
48734;DHT22;34530;52.084;5.146;2023-03-13T15:30:49;15.40;69.90
48734;DHT22;34530;52.084;5.146;2023-03-13T15:33:20;15.40;70.00
48734;DHT22;34530;52.084;5.146;2023-03-13T15:35:47;15.50;69.90
48734;DHT22;34530;52.084;5.146;2023-03-13T15:38:14;15.50;70.00
48734;DHT22;34530;52.084;5.146;2023-03-13T15:40:41;15.50;70.00
48734;DHT22;34530;52.084;5.146;2023-03-13T15:43:07;15.50;70.00
48734;DHT22;34530;52.084;5.146;2023-03-13T15:45:33;15.50;69.90
48734;DHT22;34530;52.084;5.146;2023-03-13T15:48:01;15.50;69.90
48734;DHT22;34530;52.084;5.146;2023-03-13T15:50:26;15.50;69.90
48734;DHT22;34530;52.084;5.146;2023-03-13T15:52:56;15.50;70.70
48734;DHT22;34530;52.084;5.146;2023-03-13T15:55:24;15.50;69.80
48734;DHT22;34530;52.084;5.146;2023-03-13T15:57:50;15.50;69.80
48734;DHT22;34530;52.084;5.146;2023-03-13T16:00:22;15.60;69.80
48734;DHT22;34530;52.084;5.146;2023-03-13T16:02:48;15.60;69.80
48734;DHT22;34530;52.084;5.146;2023-03-13T16:05:14;15.60;69.70
48734;DHT22;34530;52.084;5.146;2023-03-13T16:07:40;15.60;69.80
48734;DHT22;34530;52.084;5.146;2023-03-13T16:10:19;15.60;69.70
48734;DHT22;34530;52.084;5.146;2023-03-13T16:12:44;15.60;69.70
48734;DHT22;34530;52.084;5.146;2023-03-13T16:15:10;15.60;69.70
48734;DHT22;34530;52.084;5.146;2023-03-13T16:17:36;15.60;69.70
48734;DHT22;34530;52.084;5.146;2023-03-13T16:20:02;15.60;69.70
48734;DHT22;34530;52.084;5.146;2023-03-13T16:22:29;15.60;69.60
48734;DHT22;34530;52.084;5.146;2023-03-13T16:24:55;15.60;69.60
48734;DHT22;34530;52.084;5.146;2023-03-13T16:27:21;15.60;69.60
48734;DHT22;34530;52.084;5.146;2023-03-13T16:29:47;15.70;69.60
48734;DHT22;34530;52.084;5.146;2023-03-13T16:32:15;15.60;69.60
48734;DHT22;34530;52.084;5.146;2023-03-13T16:34:41;15.60;69.60
48734;DHT22;34530;52.084;5.146;2023-03-13T16:37:18;15.70;69.60
48734;DHT22;34530;52.084;5.146;2023-03-13T16:39:44;15.70;69.50
48734;DHT22;34530;52.084;5.146;2023-03-13T16:42:10;15.70;69.50
48734;DHT22;34530;52.084;5.146;2023-03-13T16:44:37;15.70;69.50
48734;DHT22;34530;52.084;5.146;2023-03-13T16:47:14;15.70;70.20
48734;DHT22;34530;52.084;5.146;2023-03-13T16:49:41;15.70;69.40
48734;DHT22;34530;52.084;5.146;2023-03-13T16:52:13;15.70;69.40
48734;DHT22;34530;52.084;5.146;2023-03-13T16:54:39;15.70;70.00
48734;DHT22;34530;52.084;5.146;2023-03-13T16:57:10;15.70;69.30
48734;DHT22;34530;52.084;5.146;2023-03-13T16:59:35;15.80;69.40
48734;DHT22;34530;52.084;5.146;2023-03-13T17:02:01;15.80;69.30
48734;DHT22;34530;52.084;5.146;2023-03-13T17:04:27;15.70;69.20
48734;DHT22;34530;52.084;5.146;2023-03-13T17:06:52;15.70;69.20
48734;DHT22;34530;52.084;5.146;2023-03-13T17:09:18;15.80;69.20
48734;DHT22;34530;52.084;5.146;2023-03-13T17:11:44;15.70;69.20
48734;DHT22;34530;52.084;5.146;2023-03-13T17:14:10;15.70;69.10
48734;DHT22;34530;52.084;5.146;2023-03-13T17:16:38;15.70;69.10
48734;DHT22;34530;52.084;5.146;2023-03-13T17:19:05;15.80;69.20
48734;DHT22;34530;52.084;5.146;2023-03-13T17:21:32;15.70;69.00
48734;DHT22;34530;52.084;5.146;2023-03-13T17:23:58;15.80;69.10
48734;DHT22;34530;52.084;5.146;2023-03-13T17:26:30;15.80;69.10
48734;DHT22;34530;52.084;5.146;2023-03-13T17:28:57;15.80;69.10
48734;DHT22;34530;52.084;5.146;2023-03-13T17:31:24;15.80;69.00